createdAt,value
2022-10-19T00:02:25.549Z,99.90
2022-10-19T00:04:53.260Z,99.90
2022-10-19T00:07:22.301Z,99.90
2022-10-19T00:09:50.216Z,99.90
2022-10-19T00:12:17.919Z,99.90
2022-10-19T00:14:45.598Z,99.90
2022-10-19T00:17:13.308Z,99.90
2022-10-19T00:19:41.156Z,99.90
2022-10-19T00:22:11.627Z,99.90
2022-10-19T00:24:42.971Z,99.90
2022-10-19T00:27:10.771Z,99.90
2022-10-19T00:29:38.980Z,99.90
2022-10-19T00:32:06.730Z,99.90
2022-10-19T00:34:34.417Z,99.90
2022-10-19T00:37:02.087Z,99.90
2022-10-19T00:39:29.803Z,99.90
2022-10-19T00:41:58.843Z,99.90
2022-10-19T00:45:06.637Z,99.90
2022-10-19T00:47:35.217Z,99.90
2022-10-19T00:50:03.392Z,99.90
2022-10-19T00:52:31.794Z,99.90
2022-10-19T00:55:00.684Z,99.90
2022-10-19T00:57:32.377Z,99.90
2022-10-19T01:00:01.779Z,99.90
2022-10-19T01:02:29.541Z,99.90
2022-10-19T01:04:57.604Z,99.90
2022-10-19T01:07:26.476Z,99.90
2022-10-19T01:09:54.956Z,99.90
2022-10-19T01:12:49.072Z,99.90
2022-10-19T01:15:28.056Z,99.90
2022-10-19T01:18:03.128Z,99.90
2022-10-19T01:21:11.767Z,99.90
2022-10-19T01:24:13.509Z,99.90
2022-10-19T01:27:26.149Z,99.90
2022-10-19T01:30:09.431Z,99.90
2022-10-19T01:32:47.688Z,99.90
2022-10-19T01:35:24.568Z,99.90
2022-10-19T01:38:01.784Z,99.90
2022-10-19T01:40:32.671Z,99.90
2022-10-19T01:43:03.680Z,99.90
2022-10-19T01:45:39.562Z,99.90
2022-10-19T01:48:09.743Z,99.90
2022-10-19T01:50:41.856Z,99.90
2022-10-19T01:53:12.336Z,99.90
2022-10-19T01:55:43.768Z,99.90
2022-10-19T01:58:15.251Z,99.90
2022-10-19T02:00:47.262Z,99.90
2022-10-19T02:03:16.522Z,99.90
2022-10-19T02:05:46.071Z,99.90
2022-10-19T02:08:18.248Z,99.90
2022-10-19T02:10:47.314Z,99.90
2022-10-19T02:13:17.225Z,99.90
2022-10-19T02:15:51.192Z,99.90
2022-10-19T02:18:23.471Z,99.90
2022-10-19T02:20:51.329Z,99.90
2022-10-19T02:23:23.037Z,99.90
2022-10-19T02:25:50.853Z,99.90
2022-10-19T02:28:19.137Z,99.90
2022-10-19T02:30:48.700Z,99.90
2022-10-19T02:33:16.988Z,99.90
2022-10-19T02:35:44.944Z,99.90
2022-10-19T02:38:16.874Z,99.90
2022-10-19T02:40:51.332Z,99.90
2022-10-19T02:43:22.977Z,99.90
2022-10-19T02:45:57.924Z,99.90
2022-10-19T02:48:28.572Z,99.90
2022-10-19T02:50:56.257Z,99.90
2022-10-19T02:53:24.028Z,99.90
2022-10-19T02:55:52.806Z,99.90
2022-10-19T02:58:20.583Z,99.90
2022-10-19T03:00:48.316Z,99.90
2022-10-19T03:03:17.390Z,99.90
2022-10-19T03:05:45.094Z,99.90
2022-10-19T03:08:12.796Z,99.90
2022-10-19T03:10:40.467Z,99.90
2022-10-19T03:13:08.180Z,99.90
2022-10-19T03:15:35.864Z,99.90
2022-10-19T03:18:03.590Z,99.90
2022-10-19T03:20:32.624Z,99.90
2022-10-19T03:23:00.356Z,99.90
2022-10-19T03:25:28.039Z,99.90
2022-10-19T03:27:55.723Z,99.90
2022-10-19T03:30:23.523Z,99.90
2022-10-19T03:32:51.554Z,99.90
2022-10-19T03:35:19.323Z,99.90
2022-10-19T03:37:48.360Z,99.90
2022-10-19T03:40:16.231Z,99.90
2022-10-19T03:42:44.020Z,99.90
2022-10-19T03:45:12.099Z,99.90
2022-10-19T03:47:39.767Z,99.90
2022-10-19T03:50:11.110Z,99.90
2022-10-19T03:52:38.786Z,99.90
2022-10-19T03:55:09.171Z,99.90
2022-10-19T03:57:37.066Z,99.90
2022-10-19T04:00:05.831Z,99.90
2022-10-19T04:02:33.553Z,99.90
2022-10-19T04:05:01.273Z,99.90
2022-10-19T04:07:29.009Z,99.90
2022-10-19T04:09:56.700Z,99.90
2022-10-19T04:12:25.763Z,99.90
2022-10-19T04:14:57.444Z,99.90
2022-10-19T04:17:26.179Z,99.90
2022-10-19T04:19:53.863Z,99.90
2022-10-19T04:22:21.620Z,99.90
2022-10-19T04:24:49.335Z,99.90
2022-10-19T04:27:17.088Z,99.90
2022-10-19T04:29:46.151Z,99.90
2022-10-19T04:32:13.831Z,99.90
2022-10-19T04:34:41.513Z,99.90
2022-10-19T04:37:09.200Z,99.90
2022-10-19T04:39:39.372Z,99.90
2022-10-19T04:42:07.085Z,99.90
2022-10-19T04:44:34.793Z,99.90
2022-10-19T04:47:03.863Z,99.90
2022-10-19T04:49:31.590Z,99.90
2022-10-19T04:51:59.269Z,99.90
2022-10-19T04:54:27.001Z,99.90
2022-10-19T04:56:54.720Z,99.90
2022-10-19T04:59:22.507Z,99.90
2022-10-19T05:01:50.226Z,99.90
2022-10-19T05:04:19.252Z,99.90
2022-10-19T05:06:46.940Z,99.90
2022-10-19T05:09:14.655Z,99.90
2022-10-19T05:11:42.357Z,99.90
2022-10-19T05:14:10.106Z,99.90
2022-10-19T05:16:37.887Z,99.90
2022-10-19T05:19:05.584Z,99.90
2022-10-19T05:21:34.736Z,99.90
2022-10-19T05:24:02.430Z,99.90
2022-10-19T05:26:30.132Z,99.90
2022-10-19T05:29:01.351Z,99.90
2022-10-19T05:31:30.822Z,99.90
2022-10-19T05:33:58.763Z,99.90
2022-10-19T05:36:28.528Z,99.90
2022-10-19T05:38:58.596Z,99.90
2022-10-19T05:41:27.273Z,99.90
2022-10-19T05:43:56.956Z,99.90
2022-10-19T05:46:25.703Z,99.90
2022-10-19T05:48:53.543Z,99.90
2022-10-19T05:51:23.342Z,99.90
2022-10-19T05:53:51.689Z,99.90
2022-10-19T05:56:22.427Z,99.90
2022-10-19T05:58:50.840Z,99.90
2022-10-19T06:01:19.784Z,99.90
2022-10-19T06:03:47.641Z,99.90
2022-10-19T06:06:15.343Z,99.90
2022-10-19T06:08:43.658Z,99.90
2022-10-19T06:11:15.524Z,99.90
2022-10-19T06:13:45.916Z,99.90
2022-10-19T06:16:15.853Z,99.90
2022-10-19T06:18:43.872Z,99.90
2022-10-19T06:21:13.855Z,99.90
2022-10-19T06:26:15.578Z,99.90
2022-10-19T06:28:45.168Z,99.90
2022-10-19T06:31:14.599Z,99.90
2022-10-19T06:33:44.354Z,99.90
2022-10-19T06:36:15.672Z,99.90
2022-10-19T06:38:43.987Z,99.90
2022-10-19T06:41:12.760Z,99.90
2022-10-19T06:43:42.898Z,99.90
2022-10-19T06:46:14.798Z,99.90
2022-10-19T06:48:42.559Z,99.90
2022-10-19T06:51:10.459Z,99.90
2022-10-19T06:53:38.227Z,99.90
2022-10-19T06:56:07.549Z,99.90
2022-10-19T06:58:36.700Z,99.90
2022-10-19T07:01:05.045Z,99.90
2022-10-19T07:03:34.629Z,99.90
2022-10-19T07:06:04.629Z,99.90
2022-10-19T07:08:33.321Z,99.90
2022-10-19T07:11:03.749Z,99.90
2022-10-19T07:13:31.964Z,99.90
2022-10-19T07:16:01.069Z,99.90
2022-10-19T07:18:29.101Z,99.90
2022-10-19T07:20:59.884Z,99.90
2022-10-19T07:23:29.351Z,99.90
2022-10-19T07:26:01.484Z,99.90
2022-10-19T07:28:30.347Z,99.90
2022-10-19T07:30:58.187Z,99.90
2022-10-19T07:33:26.007Z,99.90
2022-10-19T07:36:01.597Z,99.90
2022-10-19T07:38:31.260Z,99.90
2022-10-19T07:41:04.555Z,99.90
2022-10-19T07:43:32.276Z,99.90
2022-10-19T07:46:01.577Z,99.90
2022-10-19T07:48:29.732Z,99.90
2022-10-19T07:50:57.444Z,99.90
2022-10-19T07:53:26.518Z,99.90
2022-10-19T07:55:54.233Z,99.90
2022-10-19T07:58:22.046Z,99.90
2022-10-19T08:00:49.832Z,99.90
2022-10-19T08:06:07.648Z,99.90
2022-10-19T08:08:37.720Z,99.90
2022-10-19T08:11:09.474Z,99.90
2022-10-19T08:13:37.897Z,99.90
2022-10-19T08:16:06.585Z,99.90
2022-10-19T08:18:34.305Z,99.90
2022-10-19T08:21:03.883Z,99.90
2022-10-19T08:23:31.578Z,99.90
2022-10-19T08:26:00.719Z,99.90
2022-10-19T08:28:28.425Z,99.90
2022-10-19T08:30:58.805Z,99.90
2022-10-19T08:33:27.526Z,99.90
2022-10-19T08:35:55.210Z,99.90
2022-10-19T08:38:22.995Z,99.90
2022-10-19T08:40:50.754Z,99.90
2022-10-19T08:43:25.110Z,99.90
2022-10-19T08:45:59.501Z,99.90
2022-10-19T08:48:29.736Z,99.90
2022-10-19T08:50:58.884Z,99.90
2022-10-19T08:53:36.588Z,99.90
2022-10-19T08:56:45.772Z,99.90
2022-10-19T08:59:22.578Z,99.90
2022-10-19T09:01:55.296Z,99.90
2022-10-19T09:04:26.933Z,99.90
2022-10-19T09:07:16.286Z,99.90
2022-10-19T09:09:49.423Z,99.90
2022-10-19T09:12:20.530Z,99.90
2022-10-19T09:14:57.233Z,99.90
2022-10-19T09:17:25.175Z,99.90
2022-10-19T09:19:52.990Z,99.90
2022-10-19T09:22:25.014Z,99.90
2022-10-19T09:24:55.486Z,99.90
2022-10-19T09:27:25.258Z,99.90
2022-10-19T09:29:56.707Z,99.90
2022-10-19T09:32:28.159Z,99.90
2022-10-19T09:35:01.029Z,99.90
2022-10-19T09:40:02.587Z,99.90
2022-10-19T09:42:33.551Z,99.90
2022-10-19T09:45:14.242Z,99.90
2022-10-19T09:47:46.782Z,99.90
2022-10-19T09:50:20.111Z,99.90
2022-10-19T09:52:48.673Z,99.90
2022-10-19T09:55:38.885Z,99.90
2022-10-19T09:58:17.716Z,99.90
2022-10-19T10:00:50.367Z,99.90
2022-10-19T10:03:27.401Z,98.00
2022-10-19T10:05:57.504Z,95.30
2022-10-19T10:08:27.805Z,95.50
2022-10-19T10:11:04.457Z,90.30
2022-10-19T10:13:35.855Z,83.80
2022-10-19T10:16:08.345Z,78.50
2022-10-19T10:18:39.520Z,73.30
2022-10-19T10:21:15.202Z,67.10
2022-10-19T10:23:42.963Z,63.10
2022-10-19T10:26:20.442Z,58.70
2022-10-19T10:28:49.665Z,55.40
2022-10-19T10:31:23.234Z,53.00
2022-10-19T10:33:56.180Z,51.30
2022-10-19T10:36:25.621Z,49.20
2022-10-19T10:38:58.579Z,48.80
2022-10-19T10:41:28.921Z,47.40
2022-10-19T10:44:00.925Z,46.50
2022-10-19T10:46:37.181Z,46.40
2022-10-19T10:49:08.123Z,45.60
2022-10-19T10:51:40.488Z,45.80
2022-10-19T10:54:17.117Z,46.30
2022-10-19T10:56:55.776Z,47.00
2022-10-19T10:59:27.439Z,47.70
2022-10-19T11:02:03.071Z,49.70
2022-10-19T11:04:36.448Z,51.70
2022-10-19T11:07:16.601Z,53.50
2022-10-19T11:09:49.043Z,55.70
2022-10-19T11:12:21.024Z,56.70
2022-10-19T11:14:52.583Z,58.80
2022-10-19T11:17:24.727Z,59.10
2022-10-19T11:19:53.517Z,60.00
2022-10-19T11:22:28.256Z,59.90
2022-10-19T11:25:09.089Z,58.30
2022-10-19T11:27:48.855Z,57.50
2022-10-19T11:30:19.381Z,58.30
2022-10-19T11:32:56.981Z,60.40
2022-10-19T11:35:41.774Z,61.10
2022-10-19T11:38:32.826Z,63.60
2022-10-19T11:41:17.914Z,64.10
2022-10-19T11:43:59.581Z,64.10
2022-10-19T11:46:35.455Z,65.60
2022-10-19T11:49:16.841Z,66.70
2022-10-19T11:51:51.835Z,67.30
2022-10-19T11:54:33.859Z,68.70
2022-10-19T11:57:11.754Z,70.10
2022-10-19T11:59:50.925Z,72.40
2022-10-19T12:02:47.939Z,72.10
2022-10-19T12:05:22.516Z,71.80
2022-10-19T12:07:57.756Z,72.50
2022-10-19T12:10:31.862Z,76.20
2022-10-19T12:13:03.763Z,74.90
2022-10-19T12:15:36.032Z,75.30
2022-10-19T12:18:11.954Z,73.70
2022-10-19T12:20:45.880Z,71.10
2022-10-19T12:23:23.913Z,70.10
2022-10-19T12:25:52.564Z,68.90
2022-10-19T12:28:25.730Z,68.50
2022-10-19T12:30:54.570Z,69.00
2022-10-19T12:33:28.240Z,65.90
2022-10-19T12:36:16.964Z,64.60
2022-10-19T12:39:00.147Z,62.50
2022-10-19T12:41:34.988Z,62.20
2022-10-19T12:44:33.489Z,66.50
2022-10-19T12:47:09.327Z,69.50
2022-10-19T12:49:49.707Z,73.00
2022-10-19T12:52:37.241Z,74.70
2022-10-19T12:55:26.278Z,71.70
2022-10-19T12:58:06.870Z,68.50
2022-10-19T13:00:36.605Z,66.00
2022-10-19T13:03:08.407Z,64.30
2022-10-19T13:05:36.873Z,62.10
2022-10-19T13:08:10.793Z,61.70
2022-10-19T13:10:41.542Z,61.40
2022-10-19T13:13:55.727Z,62.90
2022-10-19T13:17:00.141Z,64.50
2022-10-19T13:19:28.349Z,65.90
2022-10-19T13:22:28.730Z,65.30
2022-10-19T13:25:32.494Z,62.70
2022-10-19T13:28:37.148Z,62.00
2022-10-19T13:31:23.392Z,61.00
2022-10-19T13:33:55.634Z,61.40
2022-10-19T13:36:25.214Z,60.90
2022-10-19T13:39:08.446Z,58.50
2022-10-19T13:41:54.032Z,58.90
2022-10-19T13:44:29.228Z,59.30
2022-10-19T13:47:18.831Z,60.30
2022-10-19T13:50:23.395Z,58.70
2022-10-19T13:53:21.645Z,59.80
2022-10-19T13:56:25.309Z,62.10
2022-10-19T13:59:44.809Z,66.50
2022-10-19T14:02:46.098Z,68.90
2022-10-19T14:08:23.511Z,70.50
2022-10-19T14:11:01.408Z,69.20
2022-10-19T14:13:30.196Z,69.10
2022-10-19T14:16:01.366Z,69.30
2022-10-19T14:18:32.983Z,69.50
2022-10-19T14:21:02.632Z,71.50
2022-10-19T14:23:32.497Z,71.80
2022-10-19T14:26:02.605Z,73.20
2022-10-19T14:28:31.213Z,73.60
2022-10-19T14:31:01.366Z,73.10
2022-10-19T14:33:33.538Z,75.00
2022-10-19T14:36:01.364Z,77.40
2022-10-19T14:38:36.128Z,78.10
2022-10-19T14:41:04.522Z,79.40
2022-10-19T14:43:35.186Z,80.40
2022-10-19T14:46:13.076Z,82.40
2022-10-19T14:48:45.204Z,84.00
2022-10-19T14:51:27.857Z,84.30
2022-10-19T14:54:00.536Z,85.10
2022-10-19T14:56:34.037Z,88.00
2022-10-19T14:59:04.360Z,90.20
2022-10-19T15:01:32.120Z,91.10
2022-10-19T15:04:01.258Z,91.60
2022-10-19T15:06:32.428Z,92.30
2022-10-19T15:09:02.861Z,93.20
2022-10-19T15:11:33.993Z,94.30
2022-10-19T15:14:07.005Z,95.00
2022-10-19T15:16:43.488Z,95.80
2022-10-19T15:19:24.341Z,96.70
2022-10-19T15:22:07.787Z,96.90
2022-10-19T15:24:35.946Z,97.50
2022-10-19T15:27:11.490Z,98.50
2022-10-19T15:29:40.169Z,99.10
2022-10-19T15:32:15.827Z,99.50
2022-10-19T15:34:46.709Z,98.80
2022-10-19T15:37:20.381Z,99.90
2022-10-19T15:39:48.755Z,99.90
2022-10-19T15:42:34.623Z,99.90
2022-10-19T15:45:03.151Z,99.90
2022-10-19T15:47:31.106Z,99.90
2022-10-19T15:50:02.548Z,99.90
2022-10-19T15:52:32.673Z,99.90
2022-10-19T15:55:01.835Z,99.90
2022-10-19T15:57:32.372Z,99.90
2022-10-19T16:00:01.962Z,99.90
2022-10-19T16:02:29.647Z,99.90
2022-10-19T16:04:57.464Z,99.90
2022-10-19T16:07:29.825Z,99.90
2022-10-19T16:09:58.529Z,99.90
2022-10-19T16:12:27.241Z,99.90
2022-10-19T16:14:55.284Z,99.90
2022-10-19T16:17:23.423Z,99.90
2022-10-19T16:19:51.213Z,99.90
2022-10-19T16:22:18.911Z,99.90
2022-10-19T16:24:47.915Z,99.90
2022-10-19T16:27:16.242Z,99.90
2022-10-19T16:29:44.464Z,99.90
2022-10-19T16:32:12.380Z,99.90
2022-10-19T16:34:41.219Z,99.90
2022-10-19T16:37:08.923Z,99.90
2022-10-19T16:39:36.645Z,99.90
2022-10-19T16:42:05.730Z,99.90
2022-10-19T16:44:33.414Z,99.90
2022-10-19T16:47:01.154Z,99.90
2022-10-19T16:49:28.997Z,99.90
2022-10-19T16:51:57.726Z,99.90
2022-10-19T16:54:27.212Z,99.90
2022-10-19T16:56:56.272Z,99.90
2022-10-19T16:59:25.468Z,99.90
2022-10-19T17:01:53.932Z,99.90
2022-10-19T17:04:21.976Z,99.90
2022-10-19T17:06:49.766Z,99.90
2022-10-19T17:12:06.370Z,99.90
2022-10-19T17:14:35.875Z,99.90
2022-10-19T17:17:03.608Z,99.90
2022-10-19T17:19:31.346Z,99.90
2022-10-19T17:22:01.728Z,99.90
2022-10-19T17:24:30.113Z,99.90
2022-10-19T17:26:57.887Z,99.90
2022-10-19T17:29:25.588Z,99.90
2022-10-19T17:31:54.692Z,99.90
2022-10-19T17:34:22.405Z,99.90
2022-10-19T17:36:50.148Z,99.90
2022-10-19T17:39:21.461Z,99.90
2022-10-19T17:41:52.367Z,99.90
2022-10-19T17:44:22.593Z,99.90
2022-10-19T17:46:50.629Z,99.90
2022-10-19T17:49:19.640Z,99.90
2022-10-19T17:51:47.540Z,99.90
2022-10-19T17:54:15.858Z,99.90
2022-10-19T17:56:45.087Z,99.90
2022-10-19T17:59:13.422Z,99.90
2022-10-19T18:01:41.227Z,99.90
2022-10-19T18:04:08.968Z,99.90
2022-10-19T18:06:38.931Z,99.90
2022-10-19T18:09:09.058Z,99.90
2022-10-19T18:11:40.127Z,99.90
2022-10-19T18:14:09.297Z,99.90
2022-10-19T18:16:39.404Z,99.90
2022-10-19T18:19:08.247Z,99.90
2022-10-19T18:21:40.780Z,99.90
2022-10-19T18:24:14.268Z,99.90
2022-10-19T18:26:43.612Z,99.90
2022-10-19T18:29:13.286Z,99.90
2022-10-19T18:31:41.860Z,99.90
2022-10-19T18:34:14.410Z,99.90
2022-10-19T18:36:44.385Z,99.90
2022-10-19T18:39:13.642Z,99.90
2022-10-19T18:41:41.721Z,99.90
2022-10-19T18:44:13.636Z,99.90
2022-10-19T18:46:41.835Z,99.90
2022-10-19T18:49:11.510Z,99.90
2022-10-19T18:51:39.658Z,99.90
2022-10-19T18:54:09.024Z,99.90
2022-10-19T18:56:37.275Z,99.90
2022-10-19T18:59:05.752Z,99.90
2022-10-19T19:01:33.785Z,99.90
2022-10-19T19:04:07.470Z,99.90
2022-10-19T19:06:36.225Z,99.90
2022-10-19T19:09:06.530Z,99.90
2022-10-19T19:11:38.046Z,99.90
2022-10-19T19:14:08.646Z,99.90
2022-10-19T19:16:38.640Z,99.90
2022-10-19T19:19:07.731Z,99.90
2022-10-19T19:21:36.520Z,99.90
2022-10-19T19:24:07.282Z,99.90
2022-10-19T19:26:39.874Z,99.90
2022-10-19T19:29:08.404Z,99.90
2022-10-19T19:31:36.520Z,99.90
2022-10-19T19:34:06.258Z,99.90
2022-10-19T19:36:34.103Z,99.90
2022-10-19T19:39:02.337Z,99.90
2022-10-19T19:41:31.209Z,99.90
2022-10-19T19:44:00.294Z,99.90
2022-10-19T19:46:28.320Z,99.90
2022-10-19T19:49:00.968Z,99.90
2022-10-19T19:51:30.447Z,99.90
2022-10-19T19:53:58.739Z,99.90
2022-10-19T19:56:29.051Z,99.90
2022-10-19T19:58:58.191Z,99.90
2022-10-19T20:01:28.028Z,99.90
2022-10-19T20:03:58.221Z,99.90
2022-10-19T20:06:26.217Z,99.90
2022-10-19T20:08:54.647Z,99.90
2022-10-19T20:11:23.526Z,99.90
2022-10-19T20:13:51.944Z,99.90
2022-10-19T20:16:25.144Z,99.90
2022-10-19T20:19:01.694Z,99.90
2022-10-19T20:21:31.451Z,99.90
2022-10-19T20:23:59.189Z,99.90
2022-10-19T20:26:27.969Z,99.90
2022-10-19T20:28:56.008Z,99.90
2022-10-19T20:31:24.328Z,99.90
2022-10-19T20:33:52.264Z,99.90
2022-10-19T20:36:24.014Z,99.90
2022-10-19T20:38:53.377Z,99.90
2022-10-19T20:41:23.200Z,99.90
2022-10-19T20:43:51.303Z,99.90
2022-10-19T20:46:20.996Z,99.90
2022-10-19T20:48:50.019Z,99.90
2022-10-19T20:51:19.698Z,99.90
2022-10-19T20:53:50.639Z,99.90
2022-10-19T20:56:21.687Z,99.90
2022-10-19T20:58:54.336Z,99.90
2022-10-19T21:01:22.553Z,99.90
2022-10-19T21:03:52.798Z,99.90
2022-10-19T21:06:22.712Z,99.90
2022-10-19T21:08:52.959Z,99.90
2022-10-19T21:11:22.744Z,99.90
2022-10-19T21:13:53.936Z,99.90
2022-10-19T21:16:23.804Z,99.90
2022-10-19T21:18:51.786Z,99.90
2022-10-19T21:21:22.052Z,99.90
2022-10-19T21:23:54.291Z,99.90
2022-10-19T21:26:22.264Z,99.90
2022-10-19T21:28:52.963Z,99.90
2022-10-19T21:31:22.142Z,99.90
2022-10-19T21:33:50.761Z,99.90
2022-10-19T21:36:19.471Z,99.90
2022-10-19T21:38:47.593Z,99.90
2022-10-19T21:41:20.937Z,99.90
2022-10-19T21:43:51.568Z,99.90
2022-10-19T21:46:21.711Z,99.90
2022-10-19T21:48:50.504Z,99.90
2022-10-19T21:51:24.611Z,99.90
2022-10-19T21:53:52.364Z,99.90
2022-10-19T21:56:21.397Z,99.90
2022-10-19T21:58:50.632Z,99.90
2022-10-19T22:01:19.906Z,99.90
2022-10-19T22:03:47.694Z,99.90
2022-10-19T22:06:15.770Z,99.90
2022-10-19T22:08:47.077Z,99.90
2022-10-19T22:11:15.473Z,99.90
2022-10-19T22:13:44.528Z,99.90
2022-10-19T22:16:14.785Z,99.90
2022-10-19T22:18:42.808Z,99.90
2022-10-19T22:21:14.091Z,99.90
2022-10-19T22:23:42.939Z,99.90
2022-10-19T22:26:15.109Z,99.90
2022-10-19T22:28:44.645Z,99.90
2022-10-19T22:31:13.530Z,99.90
2022-10-19T22:33:41.511Z,99.90
2022-10-19T22:36:11.180Z,99.90
2022-10-19T22:38:39.266Z,99.90
2022-10-19T22:41:06.996Z,99.90
2022-10-19T22:43:34.758Z,99.90
2022-10-19T22:46:03.937Z,99.90
2022-10-19T22:48:31.756Z,99.90
2022-10-19T22:50:59.475Z,99.90
2022-10-19T22:53:27.244Z,99.90
2022-10-19T22:55:54.942Z,99.90
2022-10-19T22:58:22.644Z,99.90
2022-10-19T23:01:00.912Z,99.90
2022-10-19T23:03:30.032Z,99.90
2022-10-19T23:05:57.731Z,99.90
2022-10-19T23:08:25.521Z,99.90
2022-10-19T23:10:53.588Z,99.90
2022-10-19T23:13:21.308Z,99.90
2022-10-19T23:15:50.424Z,99.90
2022-10-19T23:18:18.781Z,99.90
2022-10-19T23:20:55.208Z,99.90
2022-10-19T23:23:23.556Z,99.90
2022-10-19T23:26:05.441Z,99.90
2022-10-19T23:28:34.199Z,99.90
2022-10-19T23:31:05.646Z,99.90
2022-10-19T23:33:33.775Z,99.90
2022-10-19T23:36:07.480Z,99.90
2022-10-19T23:38:35.772Z,99.90
2022-10-19T23:41:03.829Z,99.90
2022-10-19T23:43:31.697Z,99.90
2022-10-19T23:45:59.609Z,99.90
2022-10-19T23:48:27.802Z,99.90
2022-10-19T23:50:59.845Z,99.90
2022-10-19T23:53:30.135Z,99.90
2022-10-19T23:56:01.430Z,99.90
2022-10-19T23:58:29.653Z,99.90
